sensor_id;sensor_type;location;lat;lon;timestamp;P1;durP1;ratioP1;P2;durP2;ratioP2
75285;SDS011;63879;46.064;14.532;2023-09-08T06:00:21;4.00;;;2.40;;
75285;SDS011;63879;46.064;14.532;2023-09-08T06:02:47;5.28;;;2.15;;
75285;SDS011;63879;46.064;14.532;2023-09-08T06:05:13;4.95;;;2.75;;
75285;SDS011;63879;46.064;14.532;2023-09-08T06:07:38;4.93;;;2.73;;
75285;SDS011;63879;46.064;14.532;2023-09-08T06:10:03;5.60;;;4.07;;
75285;SDS011;63879;46.064;14.532;2023-09-08T06:12:29;4.60;;;2.63;;
75285;SDS011;63879;46.064;14.532;2023-09-08T06:14:55;6.18;;;3.17;;
75285;SDS011;63879;46.064;14.532;2023-09-08T06:17:20;5.77;;;2.80;;
75285;SDS011;63879;46.064;14.532;2023-09-08T06:19:45;7.20;;;3.03;;
75285;SDS011;63879;46.064;14.532;2023-09-08T06:22:11;8.43;;;4.07;;
75285;SDS011;63879;46.064;14.532;2023-09-08T06:24:36;10.17;;;3.57;;
75285;SDS011;63879;46.064;14.532;2023-09-08T06:27:02;9.50;;;3.73;;
75285;SDS011;63879;46.064;14.532;2023-09-08T06:29:27;8.88;;;5.72;;
75285;SDS011;63879;46.064;14.532;2023-09-08T06:31:53;9.20;;;3.90;;
75285;SDS011;63879;46.064;14.532;2023-09-08T06:34:18;11.40;;;4.40;;
75285;SDS011;63879;46.064;14.532;2023-09-08T06:36:47;9.43;;;4.13;;
75285;SDS011;63879;46.064;14.532;2023-09-08T06:39:12;6.38;;;4.03;;
75285;SDS011;63879;46.064;14.532;2023-09-08T06:41:37;7.50;;;3.65;;
75285;SDS011;63879;46.064;14.532;2023-09-08T06:44:03;10.35;;;3.00;;
75285;SDS011;63879;46.064;14.532;2023-09-08T06:46:28;12.75;;;4.05;;
75285;SDS011;63879;46.064;14.532;2023-09-08T06:48:54;7.65;;;4.43;;
75285;SDS011;63879;46.064;14.532;2023-09-08T06:51:19;7.37;;;3.77;;
75285;SDS011;63879;46.064;14.532;2023-09-08T06:53:46;5.95;;;3.95;;
75285;SDS011;63879;46.064;14.532;2023-09-08T06:56:20;8.02;;;4.25;;
75285;SDS011;63879;46.064;14.532;2023-09-08T06:58:45;6.05;;;3.50;;
75285;SDS011;63879;46.064;14.532;2023-09-08T07:01:11;5.07;;;3.23;;
75285;SDS011;63879;46.064;14.532;2023-09-08T07:03:36;5.33;;;3.70;;
75285;SDS011;63879;46.064;14.532;2023-09-08T07:06:02;5.03;;;3.00;;
75285;SDS011;63879;46.064;14.532;2023-09-08T07:08:28;8.75;;;3.10;;
75285;SDS011;63879;46.064;14.532;2023-09-08T07:10:53;6.10;;;2.97;;
75285;SDS011;63879;46.064;14.532;2023-09-08T07:13:19;6.25;;;3.03;;
75285;SDS011;63879;46.064;14.532;2023-09-08T07:15:44;5.28;;;3.35;;
75285;SDS011;63879;46.064;14.532;2023-09-08T07:18:10;5.67;;;3.87;;
75285;SDS011;63879;46.064;14.532;2023-09-08T07:20:35;5.70;;;3.88;;
75285;SDS011;63879;46.064;14.532;2023-09-08T07:23:00;6.30;;;5.70;;
75285;SDS011;63879;46.064;14.532;2023-09-08T07:25:26;9.70;;;4.17;;
75285;SDS011;63879;46.064;14.532;2023-09-08T07:27:51;6.63;;;3.25;;
75285;SDS011;63879;46.064;14.532;2023-09-08T07:30:18;6.43;;;3.08;;
75285;SDS011;63879;46.064;14.532;2023-09-08T07:32:44;6.15;;;3.30;;
75285;SDS011;63879;46.064;14.532;2023-09-08T07:35:09;8.50;;;2.93;;
75285;SDS011;63879;46.064;14.532;2023-09-08T07:37:39;8.13;;;3.30;;
75285;SDS011;63879;46.064;14.532;2023-09-08T07:40:05;3.72;;;2.40;;
75285;SDS011;63879;46.064;14.532;2023-09-08T07:42:32;5.78;;;3.30;;
75285;SDS011;63879;46.064;14.532;2023-09-08T07:44:57;6.25;;;2.97;;
75285;SDS011;63879;46.064;14.532;2023-09-08T07:47:23;6.83;;;3.00;;
75285;SDS011;63879;46.064;14.532;2023-09-08T07:49:48;6.20;;;2.88;;
75285;SDS011;63879;46.064;14.532;2023-09-08T07:52:13;9.13;;;3.08;;
75285;SDS011;63879;46.064;14.532;2023-09-08T07:54:39;5.25;;;2.55;;
75285;SDS011;63879;46.064;14.532;2023-09-08T07:57:04;5.33;;;2.97;;
75285;SDS011;63879;46.064;14.532;2023-09-08T07:59:29;4.93;;;2.93;;
75285;SDS011;63879;46.064;14.532;2023-09-08T08:01:55;7.13;;;3.00;;
75285;SDS011;63879;46.064;14.532;2023-09-08T08:04:21;5.43;;;2.83;;
75285;SDS011;63879;46.064;14.532;2023-09-08T08:06:46;6.82;;;2.92;;
75285;SDS011;63879;46.064;14.532;2023-09-08T08:09:12;5.20;;;3.28;;
75285;SDS011;63879;46.064;14.532;2023-09-08T08:11:38;6.57;;;2.75;;
75285;SDS011;63879;46.064;14.532;2023-09-08T08:14:03;4.67;;;2.73;;
75285;SDS011;63879;46.064;14.532;2023-09-08T08:16:28;9.23;;;3.17;;
75285;SDS011;63879;46.064;14.532;2023-09-08T08:18:54;6.68;;;5.45;;
75285;SDS011;63879;46.064;14.532;2023-09-08T08:21:19;9.43;;;2.60;;
75285;SDS011;63879;46.064;14.532;2023-09-08T08:23:44;3.50;;;2.28;;
75285;SDS011;63879;46.064;14.532;2023-09-08T08:26:10;3.92;;;2.75;;
75285;SDS011;63879;46.064;14.532;2023-09-08T08:28:35;5.60;;;5.07;;
75285;SDS011;63879;46.064;14.532;2023-09-08T08:31:01;4.00;;;2.83;;
75285;SDS011;63879;46.064;14.532;2023-09-08T08:33:26;3.72;;;2.42;;
75285;SDS011;63879;46.064;14.532;2023-09-08T08:35:52;5.07;;;3.03;;
75285;SDS011;63879;46.064;14.532;2023-09-08T08:38:18;6.68;;;2.92;;
75285;SDS011;63879;46.064;14.532;2023-09-08T08:40:44;6.88;;;2.78;;
75285;SDS011;63879;46.064;14.532;2023-09-08T08:43:09;6.43;;;3.25;;
75285;SDS011;63879;46.064;14.532;2023-09-08T08:45:35;6.57;;;3.17;;
75285;SDS011;63879;46.064;14.532;2023-09-08T08:48:03;3.85;;;2.40;;
75285;SDS011;63879;46.064;14.532;2023-09-08T08:50:30;6.40;;;3.63;;
75285;SDS011;63879;46.064;14.532;2023-09-08T08:52:57;6.70;;;3.55;;
75285;SDS011;63879;46.064;14.532;2023-09-08T08:55:23;7.13;;;3.50;;
75285;SDS011;63879;46.064;14.532;2023-09-08T08:57:49;5.32;;;3.17;;
75285;SDS011;63879;46.064;14.532;2023-09-08T09:00:15;6.45;;;3.10;;
75285;SDS011;63879;46.064;14.532;2023-09-08T09:02:43;4.63;;;3.15;;
75285;SDS011;63879;46.064;14.532;2023-09-08T09:05:10;4.90;;;3.28;;
75285;SDS011;63879;46.064;14.532;2023-09-08T09:07:36;5.45;;;3.17;;
75285;SDS011;63879;46.064;14.532;2023-09-08T09:10:02;5.60;;;3.13;;
75285;SDS011;63879;46.064;14.532;2023-09-08T09:12:29;4.40;;;3.13;;
75285;SDS011;63879;46.064;14.532;2023-09-08T09:14:54;5.25;;;2.95;;
75285;SDS011;63879;46.064;14.532;2023-09-08T09:17:19;5.47;;;3.10;;
75285;SDS011;63879;46.064;14.532;2023-09-08T09:19:45;5.45;;;3.03;;
75285;SDS011;63879;46.064;14.532;2023-09-08T09:22:10;5.90;;;3.17;;
75285;SDS011;63879;46.064;14.532;2023-09-08T09:24:39;6.38;;;3.15;;
75285;SDS011;63879;46.064;14.532;2023-09-08T09:27:08;7.03;;;3.45;;
75285;SDS011;63879;46.064;14.532;2023-09-08T09:29:34;5.05;;;2.92;;
75285;SDS011;63879;46.064;14.532;2023-09-08T09:32:10;4.82;;;2.95;;
75285;SDS011;63879;46.064;14.532;2023-09-08T09:34:35;4.90;;;2.77;;
75285;SDS011;63879;46.064;14.532;2023-09-08T09:37:01;5.07;;;2.88;;
75285;SDS011;63879;46.064;14.532;2023-09-08T09:39:30;6.60;;;3.25;;
75285;SDS011;63879;46.064;14.532;2023-09-08T09:41:56;6.65;;;2.72;;
75285;SDS011;63879;46.064;14.532;2023-09-08T09:44:22;9.23;;;3.55;;
75285;SDS011;63879;46.064;14.532;2023-09-08T09:46:48;8.48;;;3.33;;
75285;SDS011;63879;46.064;14.532;2023-09-08T09:49:16;4.40;;;2.65;;
75285;SDS011;63879;46.064;14.532;2023-09-08T09:51:48;4.45;;;3.00;;
75285;SDS011;63879;46.064;14.532;2023-09-08T09:54:15;5.25;;;2.85;;
75285;SDS011;63879;46.064;14.532;2023-09-08T09:56:42;4.25;;;2.95;;
75285;SDS011;63879;46.064;14.532;2023-09-08T09:59:08;5.55;;;2.65;;
75285;SDS011;63879;46.064;14.532;2023-09-08T10:01:37;3.90;;;2.38;;
75285;SDS011;63879;46.064;14.532;2023-09-08T10:04:04;3.65;;;2.55;;
75285;SDS011;63879;46.064;14.532;2023-09-08T10:06:33;4.65;;;2.60;;
75285;SDS011;63879;46.064;14.532;2023-09-08T10:09:01;9.23;;;3.10;;
75285;SDS011;63879;46.064;14.532;2023-09-08T10:11:30;5.47;;;3.67;;
75285;SDS011;63879;46.064;14.532;2023-09-08T10:13:59;4.82;;;2.35;;
75285;SDS011;63879;46.064;14.532;2023-09-08T10:16:26;4.00;;;2.33;;
75285;SDS011;63879;46.064;14.532;2023-09-08T10:18:53;3.90;;;3.50;;
75285;SDS011;63879;46.064;14.532;2023-09-08T10:21:18;3.08;;;2.13;;
75285;SDS011;63879;46.064;14.532;2023-09-08T10:23:47;4.80;;;2.35;;
75285;SDS011;63879;46.064;14.532;2023-09-08T10:26:18;4.30;;;2.05;;
75285;SDS011;63879;46.064;14.532;2023-09-08T10:28:47;5.70;;;2.38;;
75285;SDS011;63879;46.064;14.532;2023-09-08T10:31:13;5.57;;;2.17;;
75285;SDS011;63879;46.064;14.532;2023-09-08T10:33:38;3.40;;;2.25;;
75285;SDS011;63879;46.064;14.532;2023-09-08T10:36:04;5.40;;;4.90;;
75285;SDS011;63879;46.064;14.532;2023-09-08T10:38:33;3.72;;;2.28;;
75285;SDS011;63879;46.064;14.532;2023-09-08T10:43:40;4.57;;;2.58;;
75285;SDS011;63879;46.064;14.532;2023-09-08T10:46:09;5.18;;;2.90;;
75285;SDS011;63879;46.064;14.532;2023-09-08T10:48:42;4.22;;;2.65;;
75285;SDS011;63879;46.064;14.532;2023-09-08T10:51:12;4.45;;;2.65;;
75285;SDS011;63879;46.064;14.532;2023-09-08T10:53:48;5.30;;;2.92;;
75285;SDS011;63879;46.064;14.532;2023-09-08T10:56:16;3.78;;;2.10;;
75285;SDS011;63879;46.064;14.532;2023-09-08T10:58:43;10.27;;;2.78;;
75285;SDS011;63879;46.064;14.532;2023-09-08T11:01:19;4.07;;;3.03;;
75285;SDS011;63879;46.064;14.532;2023-09-08T11:03:47;4.68;;;3.00;;
75285;SDS011;63879;46.064;14.532;2023-09-08T11:06:15;3.40;;;2.80;;
75285;SDS011;63879;46.064;14.532;2023-09-08T11:08:43;4.68;;;2.58;;
75285;SDS011;63879;46.064;14.532;2023-09-08T11:11:12;5.22;;;2.42;;
75285;SDS011;63879;46.064;14.532;2023-09-08T11:13:39;3.65;;;2.50;;
75285;SDS011;63879;46.064;14.532;2023-09-08T11:16:11;4.35;;;2.42;;
75285;SDS011;63879;46.064;14.532;2023-09-08T11:18:36;3.50;;;2.20;;
75285;SDS011;63879;46.064;14.532;2023-09-08T11:21:02;3.97;;;3.67;;
75285;SDS011;63879;46.064;14.532;2023-09-08T11:23:28;4.57;;;2.70;;
75285;SDS011;63879;46.064;14.532;2023-09-08T11:25:54;4.53;;;2.95;;
75285;SDS011;63879;46.064;14.532;2023-09-08T11:28:23;5.97;;;2.97;;
75285;SDS011;63879;46.064;14.532;2023-09-08T11:30:49;3.42;;;2.63;;
75285;SDS011;63879;46.064;14.532;2023-09-08T11:33:15;3.22;;;2.35;;
75285;SDS011;63879;46.064;14.532;2023-09-08T11:35:42;6.38;;;3.22;;
75285;SDS011;63879;46.064;14.532;2023-09-08T11:38:10;2.95;;;2.47;;
75285;SDS011;63879;46.064;14.532;2023-09-08T11:40:35;4.10;;;2.70;;
75285;SDS011;63879;46.064;14.532;2023-09-08T11:43:02;2.97;;;2.13;;
75285;SDS011;63879;46.064;14.532;2023-09-08T11:45:28;3.95;;;2.70;;
75285;SDS011;63879;46.064;14.532;2023-09-08T11:47:55;3.55;;;2.60;;
75285;SDS011;63879;46.064;14.532;2023-09-08T11:50:21;4.00;;;3.58;;
75285;SDS011;63879;46.064;14.532;2023-09-08T11:52:49;3.42;;;3.22;;
75285;SDS011;63879;46.064;14.532;2023-09-08T11:55:17;5.28;;;1.98;;
75285;SDS011;63879;46.064;14.532;2023-09-08T11:57:44;4.15;;;1.90;;
75285;SDS011;63879;46.064;14.532;2023-09-08T12:00:11;2.70;;;2.25;;
75285;SDS011;63879;46.064;14.532;2023-09-08T12:02:42;3.92;;;2.20;;
75285;SDS011;63879;46.064;14.532;2023-09-08T12:05:20;3.40;;;2.20;;
75285;SDS011;63879;46.064;14.532;2023-09-08T12:07:53;3.22;;;2.28;;
75285;SDS011;63879;46.064;14.532;2023-09-08T12:10:21;4.07;;;2.22;;
75285;SDS011;63879;46.064;14.532;2023-09-08T12:12:50;2.67;;;2.33;;
75285;SDS011;63879;46.064;14.532;2023-09-08T12:15:30;3.03;;;1.88;;
75285;SDS011;63879;46.064;14.532;2023-09-08T12:17:57;4.18;;;2.15;;
75285;SDS011;63879;46.064;14.532;2023-09-08T12:20:23;3.50;;;2.88;;
75285;SDS011;63879;46.064;14.532;2023-09-08T12:22:49;3.00;;;2.10;;
75285;SDS011;63879;46.064;14.532;2023-09-08T12:25:15;4.63;;;2.17;;
75285;SDS011;63879;46.064;14.532;2023-09-08T12:27:41;3.20;;;2.20;;
75285;SDS011;63879;46.064;14.532;2023-09-08T12:30:07;4.63;;;2.42;;
75285;SDS011;63879;46.064;14.532;2023-09-08T12:32:34;5.35;;;2.47;;
75285;SDS011;63879;46.064;14.532;2023-09-08T12:35:00;4.53;;;2.20;;
75285;SDS011;63879;46.064;14.532;2023-09-08T12:37:28;4.30;;;3.55;;
75285;SDS011;63879;46.064;14.532;2023-09-08T12:39:54;2.95;;;2.50;;
75285;SDS011;63879;46.064;14.532;2023-09-08T12:42:20;2.53;;;2.00;;
75285;SDS011;63879;46.064;14.532;2023-09-08T12:44:45;3.53;;;2.00;;
75285;SDS011;63879;46.064;14.532;2023-09-08T12:47:12;12.40;;;3.38;;
75285;SDS011;63879;46.064;14.532;2023-09-08T12:49:37;4.47;;;2.13;;
75285;SDS011;63879;46.064;14.532;2023-09-08T12:52:03;4.20;;;2.45;;
75285;SDS011;63879;46.064;14.532;2023-09-08T12:54:28;3.20;;;2.67;;
75285;SDS011;63879;46.064;14.532;2023-09-08T12:56:54;4.10;;;2.30;;
75285;SDS011;63879;46.064;14.532;2023-09-08T12:59:19;6.32;;;3.05;;
75285;SDS011;63879;46.064;14.532;2023-09-08T13:01:45;5.37;;;2.23;;
75285;SDS011;63879;46.064;14.532;2023-09-08T13:04:10;3.30;;;2.22;;
75285;SDS011;63879;46.064;14.532;2023-09-08T13:06:35;3.87;;;2.83;;
75285;SDS011;63879;46.064;14.532;2023-09-08T13:09:01;4.23;;;2.40;;
75285;SDS011;63879;46.064;14.532;2023-09-08T13:11:26;2.65;;;2.42;;
75285;SDS011;63879;46.064;14.532;2023-09-08T13:13:53;5.70;;;2.72;;
75285;SDS011;63879;46.064;14.532;2023-09-08T13:16:18;3.10;;;2.47;;
75285;SDS011;63879;46.064;14.532;2023-09-08T13:18:44;5.18;;;2.53;;
75285;SDS011;63879;46.064;14.532;2023-09-08T13:21:10;3.85;;;1.80;;
75285;SDS011;63879;46.064;14.532;2023-09-08T13:23:36;4.38;;;1.80;;
75285;SDS011;63879;46.064;14.532;2023-09-08T13:26:01;4.00;;;1.90;;
75285;SDS011;63879;46.064;14.532;2023-09-08T13:28:26;7.00;;;3.80;;
75285;SDS011;63879;46.064;14.532;2023-09-08T13:30:52;3.40;;;1.80;;
75285;SDS011;63879;46.064;14.532;2023-09-08T13:33:17;3.65;;;2.38;;
75285;SDS011;63879;46.064;14.532;2023-09-08T13:35:43;2.72;;;1.63;;
75285;SDS011;63879;46.064;14.532;2023-09-08T13:38:08;2.83;;;1.67;;
75285;SDS011;63879;46.064;14.532;2023-09-08T13:40:34;3.00;;;2.20;;
75285;SDS011;63879;46.064;14.532;2023-09-08T13:42:59;2.67;;;1.90;;
75285;SDS011;63879;46.064;14.532;2023-09-08T13:45:25;3.90;;;2.22;;
75285;SDS011;63879;46.064;14.532;2023-09-08T13:47:50;2.55;;;1.65;;
75285;SDS011;63879;46.064;14.532;2023-09-08T13:50:16;4.00;;;3.50;;
75285;SDS011;63879;46.064;14.532;2023-09-08T13:52:41;3.03;;;2.03;;
75285;SDS011;63879;46.064;14.532;2023-09-08T13:55:08;3.80;;;1.73;;
75285;SDS011;63879;46.064;14.532;2023-09-08T13:57:35;6.47;;;2.58;;
75285;SDS011;63879;46.064;14.532;2023-09-08T14:00:00;4.50;;;1.95;;
75285;SDS011;63879;46.064;14.532;2023-09-08T14:02:26;2.72;;;1.92;;
75285;SDS011;63879;46.064;14.532;2023-09-08T14:04:51;3.95;;;2.67;;
75285;SDS011;63879;46.064;14.532;2023-09-08T14:07:17;5.23;;;4.53;;
75285;SDS011;63879;46.064;14.532;2023-09-08T14:09:42;3.60;;;2.03;;
75285;SDS011;63879;46.064;14.532;2023-09-08T14:12:07;3.00;;;1.65;;
75285;SDS011;63879;46.064;14.532;2023-09-08T14:14:33;3.70;;;2.63;;
75285;SDS011;63879;46.064;14.532;2023-09-08T14:16:58;4.10;;;2.13;;
75285;SDS011;63879;46.064;14.532;2023-09-08T14:19:24;4.25;;;1.90;;
75285;SDS011;63879;46.064;14.532;2023-09-08T14:21:49;3.23;;;2.10;;
75285;SDS011;63879;46.064;14.532;2023-09-08T14:24:15;3.60;;;2.43;;
75285;SDS011;63879;46.064;14.532;2023-09-08T14:26:40;3.87;;;2.10;;
75285;SDS011;63879;46.064;14.532;2023-09-08T14:29:05;3.90;;;2.13;;
75285;SDS011;63879;46.064;14.532;2023-09-08T14:31:31;3.63;;;1.98;;
75285;SDS011;63879;46.064;14.532;2023-09-08T14:33:57;4.10;;;2.03;;
75285;SDS011;63879;46.064;14.532;2023-09-08T14:36:22;4.30;;;2.45;;
75285;SDS011;63879;46.064;14.532;2023-09-08T14:38:49;3.05;;;2.05;;
75285;SDS011;63879;46.064;14.532;2023-09-08T14:41:14;3.63;;;2.13;;
75285;SDS011;63879;46.064;14.532;2023-09-08T14:43:40;7.32;;;2.45;;
75285;SDS011;63879;46.064;14.532;2023-09-08T14:46:06;2.37;;;1.60;;
75285;SDS011;63879;46.064;14.532;2023-09-08T14:48:31;4.40;;;3.88;;
75285;SDS011;63879;46.064;14.532;2023-09-08T14:50:57;5.35;;;2.00;;
75285;SDS011;63879;46.064;14.532;2023-09-08T14:53:22;5.70;;;1.80;;
75285;SDS011;63879;46.064;14.532;2023-09-08T14:55:48;4.75;;;1.60;;
75285;SDS011;63879;46.064;14.532;2023-09-08T14:58:14;3.25;;;1.77;;
75285;SDS011;63879;46.064;14.532;2023-09-08T15:00:40;5.95;;;5.45;;
75285;SDS011;63879;46.064;14.532;2023-09-08T15:03:06;3.67;;;2.47;;
75285;SDS011;63879;46.064;14.532;2023-09-08T15:05:33;2.88;;;1.70;;
75285;SDS011;63879;46.064;14.532;2023-09-08T15:07:58;3.53;;;1.52;;
75285;SDS011;63879;46.064;14.532;2023-09-08T15:10:24;3.47;;;1.67;;
75285;SDS011;63879;46.064;14.532;2023-09-08T15:12:50;3.08;;;1.75;;
75285;SDS011;63879;46.064;14.532;2023-09-08T15:15:15;2.85;;;1.83;;
75285;SDS011;63879;46.064;14.532;2023-09-08T15:17:43;2.38;;;1.58;;
75285;SDS011;63879;46.064;14.532;2023-09-08T15:20:08;3.43;;;1.80;;
75285;SDS011;63879;46.064;14.532;2023-09-08T15:22:34;2.80;;;1.70;;
75285;SDS011;63879;46.064;14.532;2023-09-08T15:25:00;4.93;;;2.22;;
75285;SDS011;63879;46.064;14.532;2023-09-08T15:27:25;4.35;;;4.00;;
75285;SDS011;63879;46.064;14.532;2023-09-08T15:29:51;4.10;;;1.95;;
75285;SDS011;63879;46.064;14.532;2023-09-08T15:32:18;4.65;;;2.00;;
75285;SDS011;63879;46.064;14.532;2023-09-08T15:34:43;2.90;;;1.83;;
75285;SDS011;63879;46.064;14.532;2023-09-08T15:37:12;2.95;;;2.00;;
75285;SDS011;63879;46.064;14.532;2023-09-08T15:39:38;2.72;;;1.88;;
75285;SDS011;63879;46.064;14.532;2023-09-08T15:42:03;2.70;;;1.95;;
75285;SDS011;63879;46.064;14.532;2023-09-08T15:44:28;2.42;;;1.55;;
75285;SDS011;63879;46.064;14.532;2023-09-08T15:46:54;4.50;;;2.03;;
75285;SDS011;63879;46.064;14.532;2023-09-08T15:49:19;3.10;;;1.70;;
75285;SDS011;63879;46.064;14.532;2023-09-08T15:51:44;4.00;;;2.03;;
75285;SDS011;63879;46.064;14.532;2023-09-08T15:54:10;8.60;;;3.50;;
75285;SDS011;63879;46.064;14.532;2023-09-08T15:56:37;4.13;;;2.42;;
75285;SDS011;63879;46.064;14.532;2023-09-08T15:59:02;3.72;;;1.83;;
75285;SDS011;63879;46.064;14.532;2023-09-08T16:01:28;5.20;;;2.10;;
75285;SDS011;63879;46.064;14.532;2023-09-08T16:03:54;5.65;;;1.95;;
75285;SDS011;63879;46.064;14.532;2023-09-08T16:06:19;4.72;;;3.25;;
75285;SDS011;63879;46.064;14.532;2023-09-08T16:08:44;4.57;;;1.70;;
75285;SDS011;63879;46.064;14.532;2023-09-08T16:11:10;3.00;;;2.30;;
75285;SDS011;63879;46.064;14.532;2023-09-08T16:13:35;4.40;;;2.13;;
75285;SDS011;63879;46.064;14.532;2023-09-08T16:16:01;3.13;;;1.80;;
75285;SDS011;63879;46.064;14.532;2023-09-08T16:18:26;3.45;;;1.85;;
75285;SDS011;63879;46.064;14.532;2023-09-08T16:20:51;2.63;;;2.00;;
75285;SDS011;63879;46.064;14.532;2023-09-08T16:23:17;2.85;;;1.98;;
75285;SDS011;63879;46.064;14.532;2023-09-08T16:25:42;3.55;;;3.25;;
75285;SDS011;63879;46.064;14.532;2023-09-08T16:28:08;2.40;;;1.90;;
75285;SDS011;63879;46.064;14.532;2023-09-08T16:30:34;5.00;;;2.35;;
75285;SDS011;63879;46.064;14.532;2023-09-08T16:32:59;3.63;;;1.73;;
75285;SDS011;63879;46.064;14.532;2023-09-08T16:35:25;3.33;;;2.33;;
75285;SDS011;63879;46.064;14.532;2023-09-08T16:37:50;6.00;;;2.38;;
75285;SDS011;63879;46.064;14.532;2023-09-08T16:40:16;4.47;;;2.60;;
75285;SDS011;63879;46.064;14.532;2023-09-08T16:42:41;6.45;;;2.22;;
75285;SDS011;63879;46.064;14.532;2023-09-08T16:45:07;3.85;;;2.40;;
75285;SDS011;63879;46.064;14.532;2023-09-08T16:47:33;3.92;;;2.17;;
75285;SDS011;63879;46.064;14.532;2023-09-08T16:49:59;5.22;;;2.15;;
75285;SDS011;63879;46.064;14.532;2023-09-08T16:52:24;5.47;;;2.30;;
75285;SDS011;63879;46.064;14.532;2023-09-08T16:54:49;4.70;;;2.20;;
75285;SDS011;63879;46.064;14.532;2023-09-08T16:57:15;5.50;;;2.03;;
75285;SDS011;63879;46.064;14.532;2023-09-08T16:59:41;3.42;;;2.00;;
75285;SDS011;63879;46.064;14.532;2023-09-08T17:02:07;3.30;;;2.20;;
75285;SDS011;63879;46.064;14.532;2023-09-08T17:04:32;4.90;;;2.30;;
75285;SDS011;63879;46.064;14.532;2023-09-08T17:07:03;3.92;;;2.35;;
75285;SDS011;63879;46.064;14.532;2023-09-08T17:09:28;3.67;;;2.47;;
75285;SDS011;63879;46.064;14.532;2023-09-08T17:11:54;2.30;;;1.73;;
75285;SDS011;63879;46.064;14.532;2023-09-08T17:14:20;2.92;;;1.88;;
75285;SDS011;63879;46.064;14.532;2023-09-08T17:16:45;4.07;;;2.07;;
75285;SDS011;63879;46.064;14.532;2023-09-08T17:19:11;3.17;;;2.10;;
75285;SDS011;63879;46.064;14.532;2023-09-08T17:21:36;3.88;;;2.28;;
75285;SDS011;63879;46.064;14.532;2023-09-08T17:24:06;4.15;;;3.00;;
75285;SDS011;63879;46.064;14.532;2023-09-08T17:26:32;3.45;;;2.33;;
75285;SDS011;63879;46.064;14.532;2023-09-08T17:28:57;14.13;;;6.25;;
75285;SDS011;63879;46.064;14.532;2023-09-08T17:31:22;6.57;;;3.53;;
75285;SDS011;63879;46.064;14.532;2023-09-08T17:33:48;12.43;;;5.43;;
75285;SDS011;63879;46.064;14.532;2023-09-08T17:36:15;8.70;;;3.90;;
75285;SDS011;63879;46.064;14.532;2023-09-08T17:38:41;14.10;;;6.57;;
75285;SDS011;63879;46.064;14.532;2023-09-08T17:41:07;23.48;;;9.32;;
75285;SDS011;63879;46.064;14.532;2023-09-08T17:43:32;18.58;;;7.63;;
75285;SDS011;63879;46.064;14.532;2023-09-08T17:45:59;17.70;;;7.07;;
75285;SDS011;63879;46.064;14.532;2023-09-08T17:48:25;10.80;;;4.30;;
75285;SDS011;63879;46.064;14.532;2023-09-08T17:50:51;10.57;;;5.30;;
75285;SDS011;63879;46.064;14.532;2023-09-08T17:53:16;11.20;;;4.00;;
75285;SDS011;63879;46.064;14.532;2023-09-08T17:55:42;9.18;;;4.75;;
75285;SDS011;63879;46.064;14.532;2023-09-08T17:58:07;6.72;;;4.13;;
75285;SDS011;63879;46.064;14.532;2023-09-08T18:00:33;10.43;;;5.43;;
75285;SDS011;63879;46.064;14.532;2023-09-08T18:02:58;6.37;;;2.63;;
75285;SDS011;63879;46.064;14.532;2023-09-08T18:05:23;5.27;;;3.23;;
75285;SDS011;63879;46.064;14.532;2023-09-08T18:07:50;9.48;;;3.58;;
75285;SDS011;63879;46.064;14.532;2023-09-08T18:10:15;6.28;;;3.85;;
75285;SDS011;63879;46.064;14.532;2023-09-08T18:12:43;7.65;;;3.75;;
75285;SDS011;63879;46.064;14.532;2023-09-08T18:15:08;10.52;;;4.00;;
75285;SDS011;63879;46.064;14.532;2023-09-08T18:17:37;6.25;;;3.25;;
75285;SDS011;63879;46.064;14.532;2023-09-08T18:20:03;8.63;;;3.17;;
75285;SDS011;63879;46.064;14.532;2023-09-08T18:22:28;4.20;;;2.90;;
75285;SDS011;63879;46.064;14.532;2023-09-08T18:24:54;6.15;;;3.70;;
75285;SDS011;63879;46.064;14.532;2023-09-08T18:27:19;7.93;;;3.63;;
75285;SDS011;63879;46.064;14.532;2023-09-08T18:29:45;5.78;;;4.40;;
75285;SDS011;63879;46.064;14.532;2023-09-08T18:32:11;5.68;;;3.85;;
75285;SDS011;63879;46.064;14.532;2023-09-08T18:34:37;6.10;;;3.95;;
75285;SDS011;63879;46.064;14.532;2023-09-08T18:37:02;10.00;;;4.88;;
75285;SDS011;63879;46.064;14.532;2023-09-08T18:39:28;7.45;;;3.72;;
75285;SDS011;63879;46.064;14.532;2023-09-08T18:41:54;6.07;;;3.70;;
75285;SDS011;63879;46.064;14.532;2023-09-08T18:44:19;7.83;;;3.97;;
75285;SDS011;63879;46.064;14.532;2023-09-08T18:46:45;8.85;;;3.88;;
75285;SDS011;63879;46.064;14.532;2023-09-08T18:49:10;8.55;;;3.78;;
75285;SDS011;63879;46.064;14.532;2023-09-08T18:51:36;4.38;;;3.35;;
75285;SDS011;63879;46.064;14.532;2023-09-08T18:54:04;5.72;;;3.97;;
75285;SDS011;63879;46.064;14.532;2023-09-08T18:56:30;6.53;;;3.88;;
75285;SDS011;63879;46.064;14.532;2023-09-08T18:58:55;5.07;;;3.30;;
75285;SDS011;63879;46.064;14.532;2023-09-08T19:01:20;7.68;;;3.70;;
75285;SDS011;63879;46.064;14.532;2023-09-08T19:03:46;4.90;;;3.47;;
75285;SDS011;63879;46.064;14.532;2023-09-08T19:06:11;5.88;;;3.47;;
75285;SDS011;63879;46.064;14.532;2023-09-08T19:08:37;7.05;;;3.53;;
75285;SDS011;63879;46.064;14.532;2023-09-08T19:11:02;5.93;;;3.15;;
75285;SDS011;63879;46.064;14.532;2023-09-08T19:13:28;5.75;;;3.75;;
75285;SDS011;63879;46.064;14.532;2023-09-08T19:15:53;6.38;;;3.15;;
75285;SDS011;63879;46.064;14.532;2023-09-08T19:18:19;6.35;;;3.47;;
75285;SDS011;63879;46.064;14.532;2023-09-08T19:20:44;5.30;;;2.90;;
75285;SDS011;63879;46.064;14.532;2023-09-08T19:23:10;5.80;;;3.20;;
75285;SDS011;63879;46.064;14.532;2023-09-08T19:25:37;5.35;;;3.33;;
75285;SDS011;63879;46.064;14.532;2023-09-08T19:30:28;6.88;;;3.58;;
75285;SDS011;63879;46.064;14.532;2023-09-08T19:32:54;7.47;;;3.75;;
75285;SDS011;63879;46.064;14.532;2023-09-08T19:35:20;6.53;;;3.78;;
75285;SDS011;63879;46.064;14.532;2023-09-08T19:37:45;5.77;;;4.33;;
75285;SDS011;63879;46.064;14.532;2023-09-08T19:40:11;7.40;;;3.33;;
75285;SDS011;63879;46.064;14.532;2023-09-08T19:42:36;5.73;;;2.87;;
75285;SDS011;63879;46.064;14.532;2023-09-08T19:45:02;7.25;;;3.55;;
75285;SDS011;63879;46.064;14.532;2023-09-08T19:47:27;6.07;;;3.00;;
75285;SDS011;63879;46.064;14.532;2023-09-08T19:49:53;9.35;;;5.07;;
75285;SDS011;63879;46.064;14.532;2023-09-08T19:52:18;5.07;;;3.03;;
75285;SDS011;63879;46.064;14.532;2023-09-08T19:54:44;8.23;;;4.20;;
75285;SDS011;63879;46.064;14.532;2023-09-08T19:57:09;6.32;;;3.15;;
75285;SDS011;63879;46.064;14.532;2023-09-08T19:59:35;6.82;;;3.35;;
75285;SDS011;63879;46.064;14.532;2023-09-08T20:02:00;5.85;;;3.55;;
75285;SDS011;63879;46.064;14.532;2023-09-08T20:04:26;5.38;;;3.20;;
75285;SDS011;63879;46.064;14.532;2023-09-08T20:06:51;9.35;;;4.07;;
75285;SDS011;63879;46.064;14.532;2023-09-08T20:09:18;7.25;;;3.90;;
75285;SDS011;63879;46.064;14.532;2023-09-08T20:11:44;10.68;;;4.63;;
75285;SDS011;63879;46.064;14.532;2023-09-08T20:14:10;5.77;;;3.60;;
75285;SDS011;63879;46.064;14.532;2023-09-08T20:16:36;7.18;;;3.97;;
75285;SDS011;63879;46.064;14.532;2023-09-08T20:19:01;6.35;;;3.42;;
75285;SDS011;63879;46.064;14.532;2023-09-08T20:21:27;6.38;;;3.72;;
75285;SDS011;63879;46.064;14.532;2023-09-08T20:23:53;7.35;;;3.70;;
75285;SDS011;63879;46.064;14.532;2023-09-08T20:26:19;6.90;;;3.35;;
75285;SDS011;63879;46.064;14.532;2023-09-08T20:28:47;6.38;;;4.15;;
75285;SDS011;63879;46.064;14.532;2023-09-08T20:31:14;6.13;;;3.20;;